createdAt,value
2023-01-11T00:02:14.592Z,1.15
2023-01-11T00:04:42.055Z,1.23
2023-01-11T00:07:09.636Z,1.36
2023-01-11T00:09:37.089Z,1.38
2023-01-11T00:12:04.730Z,1.43
2023-01-11T00:14:32.200Z,1.38
2023-01-11T00:17:00.252Z,1.35
2023-01-11T00:19:27.655Z,1.41
2023-01-11T00:21:55.227Z,1.44
2023-01-11T00:24:22.690Z,1.57
2023-01-11T00:26:50.185Z,1.67
2023-01-11T00:29:17.647Z,1.55
2023-01-11T00:31:45.248Z,1.52
2023-01-11T00:34:12.703Z,1.42
2023-01-11T00:36:40.252Z,1.38
2023-01-11T00:39:07.669Z,1.43
2023-01-11T00:41:53.981Z,1.45
2023-01-11T00:44:40.148Z,1.54
2023-01-11T00:47:33.100Z,1.51
2023-01-11T00:50:01.077Z,1.59
2023-01-11T00:52:29.119Z,1.58
2023-01-11T00:54:56.604Z,1.64
2023-01-11T00:57:24.026Z,1.70
2023-01-11T00:59:51.657Z,1.74
2023-01-11T01:02:19.165Z,1.75
2023-01-11T01:04:46.723Z,1.78
2023-01-11T01:07:14.242Z,1.79
2023-01-11T01:09:41.735Z,1.77
2023-01-11T01:12:09.498Z,1.79
2023-01-11T01:14:37.235Z,1.79
2023-01-11T01:17:08.678Z,1.77
2023-01-11T01:19:38.342Z,1.79
2023-01-11T01:22:05.926Z,1.80
2023-01-11T01:24:34.075Z,1.71
2023-01-11T01:27:01.587Z,1.75
2023-01-11T01:29:29.147Z,1.75
2023-01-11T01:31:56.620Z,1.74
2023-01-11T01:34:24.230Z,1.75
2023-01-11T01:36:51.697Z,1.77
2023-01-11T01:39:19.320Z,1.69
2023-01-11T01:41:47.188Z,1.70
2023-01-11T01:44:52.133Z,1.61
2023-01-11T01:47:32.899Z,1.53
2023-01-11T01:50:06.562Z,1.69
2023-01-11T01:52:34.469Z,1.73
2023-01-11T01:55:10.301Z,1.73
2023-01-11T01:57:41.499Z,1.82
2023-01-11T02:00:10.683Z,1.87
2023-01-11T02:02:40.977Z,1.92
2023-01-11T02:05:10.068Z,1.90
2023-01-11T02:07:40.885Z,1.85
2023-01-11T02:10:12.966Z,1.84
2023-01-11T02:12:46.941Z,1.84
2023-01-11T02:15:16.879Z,1.80
2023-01-11T02:17:44.395Z,1.83
2023-01-11T02:20:20.947Z,1.92
2023-01-11T02:23:16.534Z,1.86
2023-01-11T02:26:02.759Z,1.84
2023-01-11T02:28:52.571Z,1.89
2023-01-11T02:31:44.245Z,1.94
2023-01-11T02:34:32.459Z,1.98
2023-01-11T02:37:25.214Z,2.01
2023-01-11T02:40:14.098Z,2.09
2023-01-11T02:43:11.405Z,2.14
2023-01-11T02:45:49.539Z,2.19
2023-01-11T02:48:31.999Z,2.16
2023-01-11T02:51:13.064Z,2.19
2023-01-11T02:54:10.025Z,2.27
2023-01-11T02:56:46.596Z,2.27
2023-01-11T02:59:18.508Z,2.31
2023-01-11T03:01:51.955Z,2.34
2023-01-11T03:04:24.188Z,2.38
2023-01-11T03:07:00.796Z,2.37
2023-01-11T03:09:37.362Z,2.32
2023-01-11T03:12:55.136Z,2.30
2023-01-11T03:15:44.543Z,2.35
2023-01-11T03:18:36.688Z,2.41
2023-01-11T03:21:23.919Z,2.42
2023-01-11T03:24:06.351Z,2.41
2023-01-11T03:26:36.885Z,2.43
2023-01-11T03:29:25.871Z,2.39
2023-01-11T03:32:01.191Z,2.43
2023-01-11T03:35:01.938Z,2.45
2023-01-11T03:37:54.338Z,2.47
2023-01-11T03:40:31.295Z,2.54
2023-01-11T03:43:12.421Z,2.62
2023-01-11T03:45:45.919Z,2.61
2023-01-11T03:48:26.468Z,2.56
2023-01-11T03:50:55.676Z,2.59
2023-01-11T03:53:25.907Z,2.63
2023-01-11T03:55:58.016Z,2.64
2023-01-11T03:58:27.778Z,2.69
2023-01-11T04:01:00.042Z,2.73
2023-01-11T04:03:28.362Z,2.84
2023-01-11T04:06:00.828Z,2.83
2023-01-11T04:08:28.755Z,2.83
2023-01-11T04:10:56.180Z,2.85
2023-01-11T04:13:23.801Z,2.85
2023-01-11T04:15:53.631Z,2.89
2023-01-11T04:18:21.229Z,2.87
2023-01-11T04:20:48.699Z,2.86
2023-01-11T04:23:16.327Z,2.90
2023-01-11T04:25:43.837Z,2.90
2023-01-11T04:28:11.299Z,2.94
2023-01-11T04:30:38.784Z,2.97
2023-01-11T04:33:06.308Z,3.01
2023-01-11T04:35:33.757Z,2.99
2023-01-11T04:38:01.228Z,2.97
2023-01-11T04:40:28.718Z,3.05
2023-01-11T04:42:56.184Z,3.04
2023-01-11T04:45:23.746Z,3.10
2023-01-11T04:48:00.448Z,3.11
2023-01-11T04:50:28.431Z,3.16
2023-01-11T04:52:55.948Z,3.18
2023-01-11T04:55:23.486Z,3.24
2023-01-11T04:57:50.920Z,3.24
2023-01-11T05:00:18.841Z,3.33
2023-01-11T05:02:46.285Z,3.35
2023-01-11T05:05:14.298Z,3.36
2023-01-11T05:07:41.770Z,3.33
2023-01-11T05:10:09.773Z,3.39
2023-01-11T05:12:37.260Z,3.40
2023-01-11T05:15:05.305Z,3.40
2023-01-11T05:17:32.804Z,3.42
2023-01-11T05:20:00.564Z,3.45
2023-01-11T05:22:28.018Z,3.53
2023-01-11T05:24:55.472Z,3.54
2023-01-11T05:27:22.889Z,3.51
2023-01-11T05:29:50.432Z,3.57
2023-01-11T05:32:17.876Z,3.50
2023-01-11T05:34:45.374Z,3.53
2023-01-11T05:37:12.797Z,3.45
2023-01-11T05:39:40.328Z,3.50
2023-01-11T05:46:13.855Z,3.48
2023-01-11T05:48:41.375Z,3.53
2023-01-11T05:51:09.375Z,3.56
2023-01-11T05:53:36.861Z,3.57
2023-01-11T05:56:04.609Z,3.61
2023-01-11T05:58:32.239Z,3.62
2023-01-11T06:00:59.873Z,3.61
2023-01-11T06:03:28.565Z,3.61
2023-01-11T06:05:56.092Z,3.59
2023-01-11T06:08:23.768Z,3.58
2023-01-11T06:10:55.345Z,3.59
2023-01-11T06:13:27.813Z,3.65
2023-01-11T06:16:04.004Z,3.66
2023-01-11T06:18:36.543Z,3.56
2023-01-11T06:21:05.143Z,3.54
2023-01-11T06:23:34.976Z,3.58
2023-01-11T06:26:04.730Z,3.58
2023-01-11T06:28:32.376Z,3.52
2023-01-11T06:31:00.549Z,3.54
2023-01-11T06:33:29.642Z,3.49
2023-01-11T06:35:57.653Z,3.45
2023-01-11T06:38:26.424Z,3.45
2023-01-11T06:40:56.303Z,3.42
2023-01-11T06:43:25.298Z,3.34
2023-01-11T06:45:53.564Z,3.23
2023-01-11T06:48:22.733Z,3.25
2023-01-11T06:50:52.425Z,3.24
2023-01-11T06:53:20.239Z,3.25
2023-01-11T06:55:54.802Z,3.23
2023-01-11T06:58:23.907Z,3.25
2023-01-11T07:00:52.628Z,3.25
2023-01-11T07:03:24.508Z,3.31
2023-01-11T07:05:53.806Z,3.35
2023-01-11T07:08:21.398Z,3.40
2023-01-11T07:10:49.011Z,3.44
2023-01-11T07:13:17.538Z,3.54
2023-01-11T07:15:48.582Z,3.65
2023-01-11T07:18:17.707Z,3.74
2023-01-11T07:20:45.326Z,3.84
2023-01-11T07:23:13.190Z,3.95
2023-01-11T07:25:41.366Z,4.03
2023-01-11T07:28:09.834Z,4.09
2023-01-11T07:30:56.817Z,4.10
2023-01-11T07:33:26.913Z,4.18
2023-01-11T07:35:54.848Z,4.19
2023-01-11T07:38:22.946Z,4.28
2023-01-11T07:40:50.450Z,4.34
2023-01-11T07:43:23.550Z,4.40
2023-01-11T07:45:53.029Z,4.36
2023-01-11T07:48:27.213Z,4.36
2023-01-11T07:50:55.324Z,4.36
2023-01-11T07:53:25.811Z,4.39
2023-01-11T07:55:55.953Z,4.48
2023-01-11T07:58:24.141Z,4.46
2023-01-11T08:00:51.698Z,4.49
2023-01-11T08:03:19.477Z,4.51
2023-01-11T08:05:52.054Z,4.56
2023-01-11T08:08:19.803Z,4.61
2023-01-11T08:10:47.472Z,4.62
2023-01-11T08:13:33.876Z,4.65
2023-01-11T08:16:01.388Z,4.69
2023-01-11T08:18:28.889Z,4.79
2023-01-11T08:20:56.411Z,4.81
2023-01-11T08:23:23.874Z,4.92
2023-01-11T08:25:56.632Z,4.99
2023-01-11T08:28:24.280Z,5.02
2023-01-11T08:30:51.799Z,5.11
2023-01-11T08:33:19.358Z,5.08
2023-01-11T08:35:46.831Z,5.05
2023-01-11T08:38:14.444Z,5.02
2023-01-11T08:40:44.929Z,4.90
2023-01-11T08:43:12.382Z,4.79
2023-01-11T08:45:40.028Z,4.77
2023-01-11T08:48:07.649Z,4.88
2023-01-11T08:50:35.081Z,4.90
2023-01-11T08:53:02.617Z,4.92
2023-01-11T08:55:30.990Z,4.91
2023-01-11T08:57:58.588Z,5.04
2023-01-11T09:00:26.148Z,5.05
2023-01-11T09:02:53.715Z,5.00
2023-01-11T09:05:21.291Z,5.00
2023-01-11T09:07:48.702Z,4.97
2023-01-11T09:10:16.332Z,5.05
2023-01-11T09:12:43.861Z,5.10
2023-01-11T09:15:11.713Z,5.18
2023-01-11T09:17:39.393Z,5.29
2023-01-11T09:20:07.354Z,5.39
2023-01-11T09:22:34.932Z,5.46
2023-01-11T09:25:02.811Z,5.46
2023-01-11T09:27:30.361Z,5.37
2023-01-11T09:29:57.868Z,5.29
2023-01-11T09:32:25.483Z,5.26
2023-01-11T09:34:57.398Z,5.20
2023-01-11T09:37:25.078Z,5.10
2023-01-11T09:39:52.819Z,5.05
2023-01-11T09:42:36.960Z,5.04
2023-01-11T09:45:13.906Z,5.03
2023-01-11T09:47:41.350Z,5.00
2023-01-11T09:50:17.400Z,5.11
2023-01-11T09:52:51.389Z,5.13
2023-01-11T09:55:25.575Z,5.18
2023-01-11T09:57:54.344Z,5.23
2023-01-11T10:00:25.531Z,5.20
2023-01-11T10:03:21.100Z,5.09
2023-01-11T10:06:09.206Z,5.11
2023-01-11T10:18:32.082Z,5.20
2023-01-11T10:19:18.346Z,5.21
2023-01-11T10:22:02.226Z,5.13
2023-01-11T10:24:50.409Z,5.10
2023-01-11T10:27:28.063Z,5.14
2023-01-11T10:30:14.741Z,5.05
2023-01-11T10:32:47.739Z,5.07
2023-01-11T10:35:43.634Z,5.17
2023-01-11T10:38:43.741Z,5.12
2023-01-11T10:41:26.443Z,5.14
2023-01-11T10:44:19.524Z,5.17
2023-01-11T10:46:52.747Z,5.08
2023-01-11T10:49:34.614Z,5.07
2023-01-11T10:52:20.401Z,5.08
2023-01-11T10:54:53.435Z,5.15
2023-01-11T10:57:20.951Z,5.07
2023-01-11T10:59:57.130Z,5.23
2023-01-11T11:03:11.643Z,5.35
2023-01-11T11:05:59.648Z,5.39
2023-01-11T11:08:55.531Z,5.33
2023-01-11T11:11:47.316Z,5.48
2023-01-11T11:14:27.844Z,5.44
2023-01-11T11:17:45.892Z,5.60
2023-01-11T11:20:32.127Z,5.67
2023-01-11T11:23:00.637Z,5.82
2023-01-11T11:25:38.533Z,5.70
2023-01-11T11:28:06.115Z,5.89
2023-01-11T11:30:43.842Z,6.00
2023-01-11T11:33:21.131Z,5.92
2023-01-11T11:36:06.410Z,6.04
2023-01-11T11:38:37.960Z,6.02
2023-01-11T11:41:12.820Z,6.03
2023-01-11T11:43:42.753Z,6.11
2023-01-11T11:46:19.460Z,6.15
2023-01-11T11:49:18.243Z,6.29
2023-01-11T11:51:48.133Z,6.15
2023-01-11T11:54:23.784Z,6.19
2023-01-11T11:56:51.653Z,6.19
2023-01-11T11:59:22.096Z,6.07
2023-01-11T12:01:57.995Z,6.13
2023-01-11T12:04:40.249Z,6.04
2023-01-11T12:07:18.680Z,6.03
2023-01-11T12:10:02.618Z,5.95
2023-01-11T12:12:33.077Z,5.99
2023-01-11T12:15:20.513Z,6.00
2023-01-11T12:17:49.204Z,5.98
2023-01-11T12:20:22.694Z,6.04
2023-01-11T12:22:51.528Z,6.11
2023-01-11T12:25:22.070Z,6.11
2023-01-11T12:28:11.179Z,6.11
2023-01-11T12:30:58.934Z,6.21
2023-01-11T12:33:32.486Z,6.25
2023-01-11T12:36:15.939Z,6.24
2023-01-11T12:38:46.099Z,6.27
2023-01-11T12:41:19.580Z,6.34
2023-01-11T12:44:09.315Z,6.33
2023-01-11T12:46:55.148Z,6.38
2023-01-11T12:49:35.193Z,6.37
2023-01-11T12:52:27.676Z,6.50
2023-01-11T12:55:24.783Z,6.50
2023-01-11T12:57:54.239Z,6.52
2023-01-11T13:00:29.087Z,6.46
2023-01-11T13:03:11.795Z,6.47
2023-01-11T13:06:02.309Z,6.47
2023-01-11T13:09:12.589Z,6.45
2023-01-11T13:11:49.260Z,6.62
2023-01-11T13:14:25.784Z,6.70
2023-01-11T13:17:24.556Z,6.69
2023-01-11T13:20:10.305Z,6.72
2023-01-11T13:22:43.811Z,6.74
2023-01-11T13:25:25.988Z,6.76
2023-01-11T13:27:56.314Z,6.74
2023-01-11T13:30:25.423Z,6.66
2023-01-11T13:32:58.683Z,6.58
2023-01-11T13:35:57.960Z,6.53
2023-01-11T13:38:34.701Z,6.47
2023-01-11T13:41:21.960Z,6.43
2023-01-11T13:44:02.470Z,6.43
2023-01-11T13:46:29.986Z,6.36
2023-01-11T13:49:04.905Z,6.39
2023-01-11T13:52:13.660Z,6.52
2023-01-11T13:54:41.201Z,6.53
2023-01-11T13:57:17.138Z,6.52
2023-01-11T13:59:49.329Z,6.51
2023-01-11T14:02:48.409Z,6.43
2023-01-11T14:05:19.621Z,6.37
2023-01-11T14:08:11.458Z,6.31
2023-01-11T14:10:40.607Z,6.24
2023-01-11T14:13:55.448Z,6.12
2023-01-11T14:16:38.939Z,6.13
2023-01-11T14:19:15.375Z,6.01
2023-01-11T14:21:55.194Z,5.92
2023-01-11T14:24:23.889Z,5.86
2023-01-11T14:27:14.660Z,5.86
2023-01-11T14:30:02.830Z,5.82
2023-01-11T14:32:39.144Z,5.81
2023-01-11T14:35:32.825Z,5.86
2023-01-11T14:38:41.631Z,5.83
2023-01-11T14:41:38.665Z,5.79
2023-01-11T14:44:33.346Z,5.74
2023-01-11T14:47:25.668Z,5.75
2023-01-11T14:50:13.902Z,5.75
2023-01-11T14:52:44.004Z,5.73
2023-01-11T14:55:21.327Z,5.78
2023-01-11T14:58:10.340Z,5.75
2023-01-11T15:00:58.096Z,5.72
2023-01-11T15:03:43.108Z,5.72
2023-01-11T15:06:14.992Z,5.73
2023-01-11T15:08:55.111Z,5.69
2023-01-11T15:11:31.522Z,5.71
2023-01-11T15:14:23.671Z,5.72
2023-01-11T15:17:12.370Z,5.70
2023-01-11T15:19:43.118Z,5.73
2023-01-11T15:22:25.349Z,5.73
2023-01-11T15:24:59.254Z,5.77
2023-01-11T15:27:38.499Z,5.85
2023-01-11T15:30:27.507Z,5.87
2023-01-11T15:33:17.606Z,5.95
2023-01-11T15:35:57.340Z,5.95
2023-01-11T15:38:54.321Z,5.94
2023-01-11T15:42:09.648Z,5.91
2023-01-11T15:44:46.199Z,5.97
2023-01-11T15:47:41.070Z,6.04
2023-01-11T15:50:37.277Z,6.06
2023-01-11T15:53:26.421Z,6.04
2023-01-11T15:56:30.790Z,6.04
2023-01-11T15:59:16.775Z,6.04
2023-01-11T16:02:05.784Z,6.09
2023-01-11T16:04:39.607Z,6.10
2023-01-11T16:07:27.269Z,6.08
2023-01-11T16:10:23.084Z,6.08
2023-01-11T16:12:59.261Z,6.12
2023-01-11T16:15:43.637Z,6.17
2023-01-11T16:18:19.936Z,6.17
2023-01-11T16:21:02.380Z,6.25
2023-01-11T16:23:32.328Z,6.30
2023-01-11T16:26:01.059Z,6.32
2023-01-11T16:28:28.971Z,6.37
2023-01-11T16:31:06.009Z,6.41
2023-01-11T16:33:34.808Z,6.44
2023-01-11T16:36:13.204Z,6.47
2023-01-11T16:38:54.261Z,6.49
2023-01-11T16:41:23.620Z,6.52
2023-01-11T16:44:04.703Z,6.52
2023-01-11T16:47:11.317Z,6.58
2023-01-11T16:49:41.095Z,6.64
2023-01-11T16:52:26.899Z,6.62
2023-01-11T16:55:00.302Z,6.71
2023-01-11T16:57:37.686Z,6.73
2023-01-11T17:00:19.010Z,6.79
2023-01-11T17:02:49.094Z,6.77
2023-01-11T17:05:22.483Z,6.73
2023-01-11T17:07:50.653Z,6.76
2023-01-11T17:10:30.115Z,6.78
2023-01-11T17:13:39.385Z,6.76
2023-01-11T17:16:10.636Z,6.74
2023-01-11T17:18:40.221Z,6.75
2023-01-11T17:21:35.707Z,6.75
2023-01-11T17:24:05.401Z,6.73
2023-01-11T17:26:45.448Z,6.75
2023-01-11T17:29:21.507Z,6.75
2023-01-11T17:31:50.012Z,6.75
2023-01-11T17:34:23.443Z,6.75
2023-01-11T17:36:51.361Z,6.77
2023-01-11T17:39:43.609Z,6.73
2023-01-11T17:42:33.345Z,6.71
2023-01-11T17:45:15.579Z,6.69
2023-01-11T17:47:46.349Z,6.71
2023-01-11T17:50:40.086Z,6.68
2023-01-11T17:53:13.403Z,6.69
2023-01-11T17:56:01.139Z,6.65
2023-01-11T17:58:33.845Z,6.64
2023-01-11T18:01:04.591Z,6.63
2023-01-11T18:03:41.408Z,6.58
2023-01-11T18:06:19.942Z,6.61
2023-01-11T18:08:51.166Z,6.67
2023-01-11T18:11:48.843Z,6.66
2023-01-11T18:14:29.781Z,6.66
2023-01-11T18:17:24.679Z,6.65
2023-01-11T18:19:52.399Z,6.66
2023-01-11T18:22:37.335Z,6.65
2023-01-11T18:25:25.517Z,6.65
2023-01-11T18:28:19.212Z,6.65
2023-01-11T18:30:55.116Z,6.66
2023-01-11T18:33:28.620Z,6.63
2023-01-11T18:36:04.367Z,6.59
2023-01-11T18:38:34.906Z,6.64
2023-01-11T18:41:27.155Z,6.62
2023-01-11T18:43:55.422Z,6.63
2023-01-11T18:46:22.978Z,6.63
2023-01-11T18:48:50.588Z,6.61
2023-01-11T18:51:25.009Z,6.63
2023-01-11T18:53:52.522Z,6.59
2023-01-11T18:56:20.041Z,6.58
2023-01-11T18:58:47.528Z,6.58
2023-01-11T19:01:15.254Z,6.58
2023-01-11T19:03:44.680Z,6.56
2023-01-11T19:06:14.270Z,6.56
2023-01-11T19:08:41.729Z,6.58
2023-01-11T19:11:09.334Z,6.60
2023-01-11T19:13:36.809Z,6.53
2023-01-11T19:16:04.746Z,6.54
2023-01-11T19:18:35.228Z,6.51
2023-01-11T19:21:06.775Z,6.53
2023-01-11T19:23:34.388Z,6.52
2023-01-11T19:26:02.376Z,6.51
2023-01-11T19:28:30.035Z,6.49
2023-01-11T19:30:57.594Z,6.47
2023-01-11T19:33:25.951Z,6.47
2023-01-11T19:35:53.476Z,6.47
2023-01-11T19:38:21.070Z,6.44
2023-01-11T19:40:50.462Z,6.49
2023-01-11T19:43:18.339Z,6.49
2023-01-11T19:45:54.497Z,6.47
2023-01-11T19:48:22.189Z,6.51
2023-01-11T19:50:49.769Z,6.43
2023-01-11T19:53:17.766Z,6.46
2023-01-11T19:55:45.208Z,6.46
2023-01-11T19:58:12.839Z,6.44
2023-01-11T20:00:40.326Z,6.47
2023-01-11T20:03:07.853Z,6.42
2023-01-11T20:05:35.376Z,6.41
2023-01-11T20:08:02.860Z,6.44
2023-01-11T20:10:30.403Z,6.44
2023-01-11T20:12:57.930Z,6.39
2023-01-11T20:15:25.541Z,6.37
2023-01-11T20:17:52.957Z,6.35
2023-01-11T20:20:20.426Z,6.34
2023-01-11T20:22:48.025Z,6.34
2023-01-11T20:25:18.108Z,6.27
2023-01-11T20:27:45.711Z,6.25
2023-01-11T20:30:13.377Z,6.26
2023-01-11T20:32:42.463Z,6.24
2023-01-11T20:35:10.902Z,6.25
2023-01-11T20:37:38.758Z,6.18
2023-01-11T20:40:07.035Z,6.18
2023-01-11T20:42:34.594Z,6.13
2023-01-11T20:45:02.270Z,6.13
2023-01-11T20:47:29.719Z,6.10
2023-01-11T20:49:57.333Z,6.11
2023-01-11T20:52:24.914Z,6.10
2023-01-11T20:54:52.488Z,6.05
2023-01-11T20:57:19.992Z,6.06
2023-01-11T20:59:47.498Z,6.04
2023-01-11T21:02:14.969Z,6.02
2023-01-11T21:04:42.625Z,5.96
2023-01-11T21:07:10.113Z,5.92
2023-01-11T21:09:37.636Z,5.89
2023-01-11T21:12:05.594Z,5.86
2023-01-11T21:14:33.086Z,5.86
2023-01-11T21:17:00.595Z,5.88
2023-01-11T21:19:28.138Z,5.86
2023-01-11T21:21:55.523Z,5.88
2023-01-11T21:24:23.402Z,5.80
2023-01-11T21:26:50.949Z,5.74
2023-01-11T21:29:18.538Z,5.78
2023-01-11T21:31:46.127Z,5.83
2023-01-11T21:34:14.027Z,5.85
2023-01-11T21:36:43.380Z,5.80
2023-01-11T21:39:13.424Z,5.78
2023-01-11T21:41:57.588Z,5.75
2023-01-11T21:44:33.974Z,5.70
2023-01-11T21:47:03.691Z,5.70
2023-01-11T21:49:32.632Z,5.65
2023-01-11T21:52:00.477Z,5.60
2023-01-11T21:54:28.036Z,5.62
2023-01-11T21:56:55.754Z,5.59
2023-01-11T21:59:24.619Z,5.52
2023-01-11T22:01:52.128Z,5.46
2023-01-11T22:04:20.581Z,5.42
2023-01-11T22:06:54.285Z,5.44
2023-01-11T22:09:24.052Z,5.38
2023-01-11T22:11:51.777Z,5.34
2023-01-11T22:14:19.268Z,5.28
2023-01-11T22:16:46.882Z,5.25
2023-01-11T22:19:15.303Z,5.25
2023-01-11T22:21:42.872Z,5.20
2023-01-11T22:24:12.105Z,5.16
2023-01-11T22:26:40.268Z,5.11
2023-01-11T22:29:17.888Z,5.11
2023-01-11T22:31:49.050Z,5.10
2023-01-11T22:34:18.323Z,5.06
2023-01-11T22:36:46.432Z,4.94
2023-01-11T22:39:15.724Z,4.89
2023-01-11T22:41:46.085Z,4.87
2023-01-11T22:44:14.367Z,4.82
2023-01-11T22:46:42.509Z,4.79
2023-01-11T22:49:11.022Z,4.76
2023-01-11T22:51:39.778Z,4.75
2023-01-11T22:54:07.248Z,4.77
2023-01-11T22:56:34.818Z,4.77
2023-01-11T22:59:02.776Z,4.80
2023-01-11T23:01:33.404Z,4.80
2023-01-11T23:04:01.877Z,4.77
2023-01-11T23:06:34.581Z,4.81
2023-01-11T23:09:02.418Z,4.89
2023-01-11T23:11:50.850Z,4.87
2023-01-11T23:14:20.130Z,4.85
2023-01-11T23:16:49.772Z,4.77
2023-01-11T23:19:19.691Z,4.77
2023-01-11T23:21:47.745Z,4.75
2023-01-11T23:24:16.939Z,4.71
2023-01-11T23:26:45.426Z,4.72
2023-01-11T23:29:13.160Z,4.66
2023-01-11T23:31:40.822Z,4.64
2023-01-11T23:34:09.059Z,4.63
2023-01-11T23:36:38.946Z,4.63
2023-01-11T23:39:08.536Z,4.68
2023-01-11T23:41:54.443Z,4.63
2023-01-11T23:44:22.937Z,4.53
2023-01-11T23:47:09.670Z,4.48
2023-01-11T23:49:37.240Z,4.42
2023-01-11T23:52:05.631Z,4.43
2023-01-11T23:54:34.402Z,4.43
2023-01-11T23:57:03.128Z,4.42
2023-01-11T23:59:31.024Z,4.35
